createdAt,value
2019-03-28T00:00:42.680Z,60.48
2019-03-28T00:03:15.076Z,61.62
2019-03-28T00:05:47.471Z,62.76
2019-03-28T00:08:20.082Z,65.68
2019-03-28T00:10:52.341Z,61.28
2019-03-28T00:13:24.819Z,56.71
2019-03-28T00:15:58.194Z,54.01
2019-03-28T00:18:30.852Z,55.03
2019-03-28T00:21:02.946Z,56.30
2019-03-28T00:23:36.786Z,57.44
2019-03-28T00:26:09.586Z,58.42
2019-03-28T00:28:42.135Z,59.71
2019-03-28T00:31:14.336Z,61.17
2019-03-28T00:33:46.771Z,62.22
2019-03-28T00:36:19.380Z,64.64
2019-03-28T00:38:51.781Z,60.46
2019-03-28T00:41:23.891Z,56.87
2019-03-28T00:43:56.291Z,54.53
2019-03-28T00:46:28.353Z,55.36
2019-03-28T00:49:00.516Z,56.65
2019-03-28T00:51:32.741Z,57.81
2019-03-28T00:54:04.876Z,59.00
2019-03-28T00:56:46.608Z,59.65
2019-03-28T00:59:10.996Z,61.28
2019-03-28T01:01:43.170Z,62.53
2019-03-28T01:04:15.996Z,65.44
2019-03-28T01:06:48.163Z,60.69
2019-03-28T01:09:20.801Z,55.99
2019-03-28T01:11:52.980Z,52.90
2019-03-28T01:14:25.397Z,53.87
2019-03-28T01:16:57.530Z,55.32
2019-03-28T01:19:30.023Z,56.54
2019-03-28T01:22:02.241Z,57.90
2019-03-28T01:24:34.551Z,59.55
2019-03-28T01:27:07.007Z,60.57
2019-03-28T01:29:39.731Z,61.75
2019-03-28T01:32:11.846Z,62.90
2019-03-28T01:34:44.361Z,65.77
2019-03-28T01:37:16.420Z,60.78
2019-03-28T01:39:48.826Z,55.81
2019-03-28T01:42:21.554Z,53.01
2019-03-28T01:44:53.957Z,54.11
2019-03-28T01:47:26.070Z,55.51
2019-03-28T01:49:58.285Z,56.94
2019-03-28T01:52:30.758Z,58.01
2019-03-28T01:55:03.246Z,59.34
2019-03-28T01:57:35.771Z,60.75
2019-03-28T02:00:12.457Z,61.89
2019-03-28T02:02:45.334Z,62.98
2019-03-28T02:05:18.252Z,65.89
2019-03-28T02:07:50.516Z,60.96
2019-03-28T02:10:22.831Z,55.83
2019-03-28T02:12:54.980Z,53.81
2019-03-28T02:15:27.277Z,54.72
2019-03-28T02:17:59.751Z,56.07
2019-03-28T02:20:32.026Z,57.46
2019-03-28T02:23:04.406Z,58.87
2019-03-28T02:25:37.075Z,60.05
2019-03-28T02:28:09.452Z,61.24
2019-03-28T02:30:41.730Z,62.34
2019-03-28T02:33:14.162Z,64.89
2019-03-28T02:35:46.562Z,60.66
2019-03-28T02:38:18.782Z,56.85
2019-03-28T02:40:50.991Z,54.02
2019-03-28T02:43:23.442Z,54.96
2019-03-28T02:45:56.487Z,56.35
2019-03-28T02:48:29.166Z,57.80
2019-03-28T02:51:01.522Z,58.99
2019-03-28T02:53:33.615Z,59.95
2019-03-28T02:56:05.927Z,61.46
2019-03-28T02:58:38.232Z,61.81
2019-03-28T03:01:10.556Z,63.79
2019-03-28T03:03:42.960Z,66.35
2019-03-28T03:06:15.549Z,62.00
2019-03-28T03:08:47.902Z,58.45
2019-03-28T03:11:20.526Z,55.00
2019-03-28T03:13:52.631Z,56.02
2019-03-28T03:16:25.141Z,57.26
2019-03-28T03:18:57.437Z,58.74
2019-03-28T03:21:29.731Z,59.87
2019-03-28T03:24:02.080Z,60.65
2019-03-28T03:26:34.387Z,62.43
2019-03-28T03:29:06.816Z,64.62
2019-03-28T03:31:39.135Z,60.27
2019-03-28T03:34:11.275Z,56.21
2019-03-28T03:36:43.804Z,54.38
2019-03-28T03:39:15.944Z,55.30
2019-03-28T03:41:48.612Z,56.36
2019-03-28T03:44:21.106Z,57.87
2019-03-28T03:46:53.830Z,59.11
2019-03-28T03:49:26.193Z,60.26
2019-03-28T03:51:58.547Z,61.54
2019-03-28T03:54:30.933Z,62.74
2019-03-28T03:57:03.781Z,64.50
2019-03-28T03:59:35.972Z,60.40
2019-03-28T04:02:08.422Z,56.23
2019-03-28T04:04:41.057Z,54.04
2019-03-28T04:07:13.636Z,54.83
2019-03-28T04:09:46.139Z,55.89
2019-03-28T04:12:18.766Z,57.45
2019-03-28T04:14:51.562Z,58.44
2019-03-28T04:17:24.267Z,59.98
2019-03-28T04:19:56.514Z,61.25
2019-03-28T04:22:29.122Z,62.58
2019-03-28T04:25:01.396Z,65.20
2019-03-28T04:27:34.016Z,60.29
2019-03-28T04:30:08.976Z,55.90
2019-03-28T04:32:41.478Z,53.07
2019-03-28T04:35:13.812Z,54.10
2019-03-28T04:37:46.732Z,55.46
2019-03-28T04:40:19.142Z,56.83
2019-03-28T04:42:51.772Z,58.21
2019-03-28T04:45:24.266Z,59.42
2019-03-28T04:47:56.716Z,60.51
2019-03-28T04:50:28.961Z,61.79
2019-03-28T04:53:01.487Z,63.25
2019-03-28T04:55:33.769Z,65.53
2019-03-28T04:58:06.001Z,61.32
2019-03-28T05:00:38.326Z,55.84
2019-03-28T05:03:11.047Z,53.77
2019-03-28T05:05:43.521Z,54.66
2019-03-28T05:08:16.094Z,56.10
2019-03-28T05:10:48.372Z,57.47
2019-03-28T05:13:20.727Z,58.77
2019-03-28T05:15:52.972Z,59.90
2019-03-28T05:18:25.472Z,60.72
2019-03-28T05:20:57.932Z,62.16
2019-03-28T05:23:30.752Z,64.46
2019-03-28T05:26:02.990Z,60.91
2019-03-28T05:28:35.367Z,55.91
2019-03-28T05:31:08.355Z,53.77
2019-03-28T05:33:40.911Z,54.74
2019-03-28T05:36:13.357Z,56.18
2019-03-28T05:38:46.176Z,57.42
2019-03-28T05:41:18.386Z,58.78
2019-03-28T05:43:50.761Z,59.49
2019-03-28T05:46:24.656Z,61.07
2019-03-28T05:48:57.334Z,62.50
2019-03-28T05:51:29.881Z,64.01
2019-03-28T05:54:02.261Z,60.27
2019-03-28T05:56:34.988Z,55.94
2019-03-28T05:59:11.066Z,53.18
2019-03-28T06:01:41.266Z,54.11
2019-03-28T06:04:13.736Z,55.48
2019-03-28T06:06:46.081Z,56.87
2019-03-28T06:09:19.278Z,57.75
2019-03-28T06:11:52.972Z,58.96
2019-03-28T06:14:25.723Z,59.55
2019-03-28T06:16:58.019Z,60.91
2019-03-28T06:19:30.216Z,62.32
2019-03-28T06:22:03.652Z,64.36
2019-03-28T06:24:36.041Z,59.42
2019-03-28T06:27:08.302Z,55.45
2019-03-28T06:29:40.756Z,56.06
2019-03-28T06:32:13.371Z,56.86
2019-03-28T06:34:45.648Z,58.46
2019-03-28T06:37:18.345Z,59.11
2019-03-28T06:39:51.260Z,60.57
2019-03-28T06:42:24.011Z,61.52
2019-03-28T06:44:56.476Z,61.90
2019-03-28T06:47:28.826Z,63.43
2019-03-28T06:50:01.246Z,64.81
2019-03-28T06:52:34.066Z,59.42
2019-03-28T06:55:06.721Z,56.05
2019-03-28T06:57:39.355Z,56.75
2019-03-28T07:00:11.911Z,57.84
2019-03-28T07:02:44.066Z,58.96
2019-03-28T07:05:16.402Z,59.74
2019-03-28T07:07:48.795Z,60.71
2019-03-28T07:10:22.391Z,61.71
2019-03-28T07:12:54.371Z,62.50
2019-03-28T07:15:26.991Z,63.27
2019-03-28T07:17:59.676Z,58.99
2019-03-28T07:20:32.721Z,55.88
2019-03-28T07:23:04.990Z,56.40
2019-03-28T07:25:37.446Z,57.10
2019-03-28T07:28:09.683Z,58.13
2019-03-28T07:30:42.031Z,58.94
2019-03-28T07:33:14.273Z,59.91
2019-03-28T07:35:46.650Z,60.74
2019-03-28T07:38:19.000Z,62.15
2019-03-28T07:40:51.575Z,62.65
2019-03-28T07:43:25.312Z,59.25
2019-03-28T07:45:58.034Z,55.06
2019-03-28T07:48:30.995Z,55.20
2019-03-28T07:51:03.416Z,55.96
2019-03-28T07:53:35.815Z,56.59
2019-03-28T07:56:08.153Z,57.56
2019-03-28T07:58:40.331Z,58.31
2019-03-28T08:01:12.896Z,59.64
2019-03-28T08:03:45.285Z,60.49
2019-03-28T08:06:17.647Z,61.05
2019-03-28T08:08:50.150Z,61.73
2019-03-28T08:11:22.765Z,62.28
2019-03-28T08:13:54.895Z,61.47
2019-03-28T08:16:29.019Z,62.84
2019-03-28T08:19:01.519Z,63.21
2019-03-28T08:21:33.895Z,57.91
2019-03-28T08:24:06.258Z,53.69
2019-03-28T08:26:38.580Z,53.43
2019-03-28T08:29:10.965Z,53.35
2019-03-28T08:31:45.036Z,54.24
2019-03-28T08:34:18.583Z,53.97
2019-03-28T08:36:51.341Z,53.98
2019-03-28T08:39:23.723Z,54.93
2019-03-28T08:41:56.470Z,55.62
2019-03-28T08:44:29.205Z,57.33
2019-03-28T08:47:01.845Z,56.63
2019-03-28T08:49:34.191Z,56.74
2019-03-28T08:52:06.580Z,57.47
2019-03-28T08:54:39.005Z,57.05
2019-03-28T08:57:11.676Z,57.04
2019-03-28T08:59:44.076Z,58.70
2019-03-28T09:02:16.458Z,58.59
2019-03-28T09:04:50.332Z,59.77
2019-03-28T09:07:22.972Z,59.58
2019-03-28T09:09:55.850Z,60.34
2019-03-28T09:12:28.370Z,60.02
2019-03-28T09:15:06.638Z,60.13
2019-03-28T09:17:39.096Z,59.97
2019-03-28T09:20:11.415Z,59.74
2019-03-28T09:22:43.671Z,60.45
2019-03-28T09:25:16.165Z,59.72
2019-03-28T09:27:51.563Z,60.20
2019-03-28T09:30:29.687Z,60.65
2019-03-28T09:33:02.131Z,59.53
2019-03-28T09:35:34.622Z,58.79
2019-03-28T09:38:07.151Z,58.85
2019-03-28T09:40:39.365Z,58.95
2019-03-28T09:43:12.050Z,58.52
2019-03-28T09:45:44.530Z,58.32
2019-03-28T09:48:17.090Z,58.26
2019-03-28T09:50:49.575Z,58.31
2019-03-28T09:53:22.174Z,58.34
2019-03-28T09:55:54.536Z,56.34
2019-03-28T09:58:26.913Z,56.30
2019-03-28T10:01:03.062Z,55.56
2019-03-28T10:03:33.597Z,54.95
2019-03-28T10:06:06.201Z,56.82
2019-03-28T10:08:39.211Z,57.67
2019-03-28T10:11:11.667Z,56.79
2019-03-28T10:13:44.101Z,56.79
2019-03-28T10:16:16.731Z,56.85
2019-03-28T10:18:49.103Z,56.27
2019-03-28T10:21:21.433Z,57.22
2019-03-28T10:23:54.141Z,57.77
2019-03-28T10:26:26.400Z,55.36
2019-03-28T10:28:59.760Z,56.24
2019-03-28T10:31:32.155Z,54.75
2019-03-28T10:34:04.655Z,56.26
2019-03-28T10:36:36.916Z,55.31
2019-03-28T10:39:10.192Z,53.83
2019-03-28T10:41:42.941Z,52.83
2019-03-28T10:44:15.360Z,54.27
2019-03-28T10:46:47.835Z,54.28
2019-03-28T10:49:20.010Z,52.86
2019-03-28T10:51:53.311Z,52.68
2019-03-28T10:54:25.889Z,54.48
2019-03-28T10:57:12.504Z,52.91
2019-03-28T10:59:33.721Z,53.61
2019-03-28T11:02:06.086Z,54.42
2019-03-28T11:04:38.431Z,54.40
2019-03-28T11:07:10.601Z,53.21
2019-03-28T11:09:43.311Z,52.81
2019-03-28T11:12:15.951Z,52.76
2019-03-28T11:14:48.506Z,53.00
2019-03-28T11:17:21.792Z,52.89
2019-03-28T11:19:56.134Z,51.96
2019-03-28T11:22:29.310Z,53.06
2019-03-28T11:25:01.485Z,53.90
2019-03-28T11:27:33.713Z,53.76
2019-03-28T11:30:10.616Z,53.71
2019-03-28T11:32:43.300Z,51.47
2019-03-28T11:35:15.878Z,52.05
2019-03-28T11:37:48.181Z,51.82
2019-03-28T11:40:20.811Z,52.11
2019-03-28T11:42:53.879Z,52.41
2019-03-28T11:45:27.225Z,51.80
2019-03-28T11:47:59.551Z,50.68
2019-03-28T11:50:32.071Z,51.03
2019-03-28T11:53:04.661Z,51.95
2019-03-28T11:55:36.866Z,52.62
2019-03-28T11:58:09.471Z,52.32
2019-03-28T12:00:41.771Z,51.89
2019-03-28T12:03:14.215Z,51.82
2019-03-28T12:05:46.721Z,51.58
2019-03-28T12:08:19.075Z,51.57
2019-03-28T12:10:51.950Z,51.53
2019-03-28T12:13:25.641Z,51.19
2019-03-28T12:15:57.901Z,51.30
2019-03-28T12:18:30.256Z,50.80
2019-03-28T12:21:03.536Z,51.18
2019-03-28T12:23:36.135Z,51.30
2019-03-28T12:26:08.701Z,51.43
2019-03-28T12:28:41.763Z,50.16
2019-03-28T12:31:14.000Z,51.01
2019-03-28T12:33:46.375Z,49.33
2019-03-28T12:36:19.061Z,50.16
2019-03-28T12:38:51.390Z,49.68
2019-03-28T12:41:23.866Z,49.07
2019-03-28T12:43:56.117Z,49.36
2019-03-28T12:46:28.632Z,48.60
2019-03-28T12:49:01.021Z,50.03
2019-03-28T12:51:34.631Z,50.05
2019-03-28T12:54:07.073Z,49.25
2019-03-28T12:56:39.781Z,48.55
2019-03-28T12:59:12.311Z,50.37
2019-03-28T13:01:44.767Z,48.88
2019-03-28T13:04:17.346Z,48.98
2019-03-28T13:06:49.746Z,48.94
2019-03-28T13:09:22.152Z,48.96
2019-03-28T13:11:54.732Z,49.85
2019-03-28T13:14:27.277Z,49.18
2019-03-28T13:17:00.096Z,48.76
2019-03-28T13:19:32.516Z,50.26
2019-03-28T13:22:05.057Z,49.74
2019-03-28T13:24:37.661Z,49.70
2019-03-28T13:27:10.711Z,48.69
2019-03-28T13:29:43.556Z,50.55
2019-03-28T13:32:16.304Z,50.12
2019-03-28T13:34:48.456Z,49.23
2019-03-28T13:37:20.776Z,49.83
2019-03-28T13:39:53.096Z,49.63
2019-03-28T13:42:25.196Z,50.30
2019-03-28T13:44:57.681Z,50.57
2019-03-28T13:47:30.040Z,49.45
2019-03-28T13:50:02.715Z,48.76
2019-03-28T13:52:35.301Z,49.14
2019-03-28T13:55:10.811Z,49.02
2019-03-28T13:57:43.554Z,49.37
2019-03-28T14:00:19.236Z,48.77
2019-03-28T14:02:58.424Z,49.50
2019-03-28T14:05:26.221Z,47.94
2019-03-28T14:07:58.748Z,48.34
2019-03-28T14:10:31.621Z,48.51
2019-03-28T14:13:04.020Z,48.30
2019-03-28T14:15:36.762Z,48.62
2019-03-28T14:18:09.170Z,48.41
2019-03-28T14:20:42.181Z,46.71
2019-03-28T14:23:14.640Z,47.65
2019-03-28T14:25:48.394Z,47.66
2019-03-28T14:28:20.931Z,48.00
2019-03-28T14:30:53.701Z,47.88
2019-03-28T14:33:27.272Z,48.58
2019-03-28T14:35:59.861Z,48.68
2019-03-28T14:38:32.491Z,48.59
2019-03-28T14:41:04.991Z,49.05
2019-03-28T14:43:37.846Z,49.66
2019-03-28T14:46:11.681Z,49.91
2019-03-28T14:48:44.041Z,51.17
2019-03-28T14:51:16.536Z,51.15
2019-03-28T14:53:49.072Z,51.14
2019-03-28T14:56:22.005Z,51.52
2019-03-28T14:58:55.396Z,51.63
2019-03-28T15:01:27.735Z,51.05
2019-03-28T15:04:00.215Z,51.31
2019-03-28T15:06:33.685Z,50.99
2019-03-28T15:09:09.775Z,51.57
2019-03-28T15:11:43.405Z,51.36
2019-03-28T15:14:16.176Z,51.46
2019-03-28T15:16:49.082Z,51.81
2019-03-28T15:19:21.435Z,51.90
2019-03-28T15:21:53.966Z,52.23
2019-03-28T15:24:26.730Z,52.53
2019-03-28T15:26:59.312Z,52.89
2019-03-28T15:29:31.896Z,52.23
2019-03-28T15:32:04.331Z,52.67
2019-03-28T15:34:36.970Z,53.41
2019-03-28T15:37:09.440Z,53.48
2019-03-28T15:39:41.953Z,52.98
2019-03-28T15:42:14.695Z,52.89
2019-03-28T15:44:47.335Z,53.08
2019-03-28T15:47:19.451Z,53.64
2019-03-28T15:49:52.353Z,53.65
2019-03-28T15:52:27.421Z,54.10
2019-03-28T15:54:59.210Z,53.83
2019-03-28T15:57:31.811Z,53.59
2019-03-28T16:00:04.105Z,53.95
2019-03-28T16:02:38.055Z,53.57
2019-03-28T16:05:10.355Z,54.35
2019-03-28T16:07:43.136Z,53.91
2019-03-28T16:10:15.666Z,53.47
2019-03-28T16:12:48.050Z,53.57
2019-03-28T16:15:20.360Z,53.36
2019-03-28T16:17:53.075Z,53.16
2019-03-28T16:20:25.710Z,53.17
2019-03-28T16:22:58.365Z,53.81
2019-03-28T16:25:31.174Z,53.99
2019-03-28T16:28:03.780Z,53.14
2019-03-28T16:30:38.670Z,53.12
2019-03-28T16:33:11.212Z,53.42
2019-03-28T16:35:43.705Z,52.87
2019-03-28T16:38:16.306Z,53.47
2019-03-28T16:40:48.858Z,53.72
2019-03-28T16:43:25.684Z,53.93
2019-03-28T16:45:58.332Z,54.10
2019-03-28T16:48:30.990Z,54.67
2019-03-28T16:51:03.532Z,55.00
2019-03-28T16:53:36.076Z,54.94
2019-03-28T16:56:08.750Z,55.28
2019-03-28T16:58:41.485Z,55.38
2019-03-28T17:01:14.190Z,55.53
2019-03-28T17:03:46.645Z,55.91
2019-03-28T17:06:19.170Z,55.99
2019-03-28T17:08:51.826Z,56.01
2019-03-28T17:11:24.755Z,54.86
2019-03-28T17:13:57.209Z,54.73
2019-03-28T17:16:29.629Z,54.72
2019-03-28T17:19:02.275Z,55.53
2019-03-28T17:21:34.701Z,55.75
2019-03-28T17:24:07.250Z,56.35
2019-03-28T17:26:39.937Z,56.50
2019-03-28T17:29:12.743Z,57.00
2019-03-28T17:31:45.390Z,57.28
2019-03-28T17:34:17.816Z,57.72
2019-03-28T17:36:50.582Z,58.05
2019-03-28T17:39:23.230Z,58.50
2019-03-28T17:41:55.935Z,58.50
2019-03-28T17:44:29.015Z,58.59
2019-03-28T17:47:01.431Z,58.88
2019-03-28T17:49:34.151Z,58.91
2019-03-28T17:52:07.111Z,59.39
2019-03-28T17:54:40.480Z,58.97
2019-03-28T17:57:13.714Z,59.09
2019-03-28T17:59:46.546Z,58.95
2019-03-28T18:02:19.130Z,59.00
2019-03-28T18:04:51.757Z,58.68
2019-03-28T18:07:24.465Z,59.03
2019-03-28T18:09:56.905Z,58.71
2019-03-28T18:12:29.815Z,58.66
2019-03-28T18:15:02.416Z,58.51
2019-03-28T18:17:35.335Z,58.29
2019-03-28T18:20:08.650Z,58.65
2019-03-28T18:22:41.135Z,59.26
2019-03-28T18:25:13.623Z,59.53
2019-03-28T18:27:46.172Z,59.64
2019-03-28T18:30:20.225Z,59.84
2019-03-28T18:32:52.852Z,58.92
2019-03-28T18:35:25.168Z,58.84
2019-03-28T18:37:57.806Z,58.52
2019-03-28T18:40:30.161Z,58.04
2019-03-28T18:43:02.938Z,58.48
2019-03-28T18:45:35.888Z,58.23
2019-03-28T18:48:09.334Z,58.54
2019-03-28T18:50:42.413Z,58.64
2019-03-28T18:53:14.736Z,58.45
2019-03-28T18:55:47.110Z,58.65
2019-03-28T18:58:19.540Z,58.65
2019-03-28T19:00:52.316Z,59.05
2019-03-28T19:03:24.665Z,59.55
2019-03-28T19:05:57.345Z,60.04
2019-03-28T19:08:29.810Z,60.04
2019-03-28T19:11:02.341Z,60.24
2019-03-28T19:13:35.615Z,60.19
2019-03-28T19:16:08.240Z,60.53
2019-03-28T19:18:40.650Z,60.66
2019-03-28T19:21:13.253Z,60.64
2019-03-28T19:23:45.631Z,61.17
2019-03-28T19:26:18.040Z,61.24
2019-03-28T19:28:50.641Z,62.12
2019-03-28T19:31:23.275Z,61.97
2019-03-28T19:33:55.700Z,62.15
2019-03-28T19:36:28.236Z,62.15
2019-03-28T19:39:00.460Z,62.09
2019-03-28T19:41:34.507Z,62.73
2019-03-28T19:44:06.930Z,65.96
2019-03-28T19:46:39.392Z,62.11
2019-03-28T19:49:11.717Z,56.57
2019-03-28T19:51:47.491Z,51.10
2019-03-28T19:54:18.475Z,50.74
2019-03-28T19:56:51.125Z,51.43
2019-03-28T19:59:23.635Z,51.63
2019-03-28T20:01:56.256Z,52.23
2019-03-28T20:04:29.066Z,52.95
2019-03-28T20:07:01.531Z,53.42
2019-03-28T20:09:34.236Z,54.48
2019-03-28T20:12:06.888Z,54.85
2019-03-28T20:14:39.506Z,55.60
2019-03-28T20:17:12.192Z,56.50
2019-03-28T20:19:44.410Z,57.20
2019-03-28T20:22:16.764Z,58.09
2019-03-28T20:24:49.255Z,58.88
2019-03-28T20:27:22.373Z,59.47
2019-03-28T20:29:55.994Z,60.09
2019-03-28T20:32:28.500Z,60.29
2019-03-28T20:35:01.200Z,60.94
2019-03-28T20:37:33.926Z,61.89
2019-03-28T20:40:09.192Z,62.35
2019-03-28T20:42:43.005Z,67.26
2019-03-28T20:45:16.970Z,63.01
2019-03-28T20:47:50.868Z,56.51
2019-03-28T20:50:23.902Z,51.94
2019-03-28T20:52:56.445Z,51.83
2019-03-28T20:55:28.868Z,52.06
2019-03-28T20:58:01.295Z,52.29
2019-03-28T21:00:46.470Z,53.12
2019-03-28T21:03:18.921Z,54.47
2019-03-28T21:05:51.525Z,55.29
2019-03-28T21:08:23.971Z,56.07
2019-03-28T21:10:56.350Z,56.54
2019-03-28T21:13:30.055Z,57.43
2019-03-28T21:16:02.530Z,58.12
2019-03-28T21:18:34.900Z,58.93
2019-03-28T21:21:07.620Z,59.51
2019-03-28T21:23:40.360Z,60.05
2019-03-28T21:26:12.856Z,61.10
2019-03-28T21:28:47.497Z,61.74
2019-03-28T21:31:19.550Z,62.03
2019-03-28T21:33:54.900Z,62.56
2019-03-28T21:36:29.933Z,67.13
2019-03-28T21:39:01.331Z,61.53
2019-03-28T21:41:35.793Z,54.55
2019-03-28T21:44:07.886Z,51.13
2019-03-28T21:46:40.280Z,52.52
2019-03-28T21:49:13.915Z,53.69
2019-03-28T21:51:47.642Z,54.86
2019-03-28T21:54:20.196Z,55.84
2019-03-28T21:56:52.833Z,56.69
2019-03-28T21:59:25.120Z,57.74
2019-03-28T22:01:58.360Z,58.57
2019-03-28T22:04:31.236Z,59.80
2019-03-28T22:07:03.821Z,60.42
2019-03-28T22:09:39.501Z,61.21
2019-03-28T22:12:10.192Z,62.15
2019-03-28T22:14:42.716Z,65.81
2019-03-28T22:17:15.866Z,60.51
2019-03-28T22:19:48.645Z,55.75
2019-03-28T22:22:21.115Z,52.64
2019-03-28T22:24:53.430Z,53.68
2019-03-28T22:27:26.105Z,54.43
2019-03-28T22:29:58.485Z,55.31
2019-03-28T22:32:30.950Z,56.56
2019-03-28T22:35:03.332Z,57.50
2019-03-28T22:37:35.531Z,58.73
2019-03-28T22:40:11.756Z,59.41
2019-03-28T22:42:42.945Z,60.75
2019-03-28T22:45:15.551Z,61.79
2019-03-28T22:47:48.269Z,62.31
2019-03-28T22:50:20.897Z,65.65
2019-03-28T22:52:53.504Z,61.53
2019-03-28T22:55:25.896Z,56.82
2019-03-28T22:57:58.490Z,53.10
2019-03-28T23:00:44.949Z,53.59
2019-03-28T23:03:19.085Z,54.95
2019-03-28T23:05:51.660Z,56.09
2019-03-28T23:08:24.265Z,57.21
2019-03-28T23:10:56.750Z,58.50
2019-03-28T23:13:29.210Z,59.41
2019-03-28T23:16:02.352Z,60.42
2019-03-28T23:18:35.688Z,61.41
2019-03-28T23:21:08.120Z,63.13
2019-03-28T23:23:40.612Z,65.00
2019-03-28T23:26:13.207Z,60.03
2019-03-28T23:28:45.577Z,55.69
2019-03-28T23:31:18.350Z,56.47
2019-03-28T23:33:51.022Z,57.28
2019-03-28T23:36:23.435Z,58.12
2019-03-28T23:38:56.046Z,59.22
2019-03-28T23:41:28.605Z,60.06
2019-03-28T23:44:01.885Z,61.41
2019-03-28T23:46:34.370Z,62.51
2019-03-28T23:49:18.086Z,64.67
2019-03-28T23:52:02.062Z,59.75
2019-03-28T23:54:39.510Z,55.13
2019-03-28T23:57:11.951Z,55.64
2019-03-28T23:59:44.496Z,56.57
